Saturday, November 18, 2017, 9:44 PM EST
Back to Local

KCAR, Caribou Municipal Airport

Location: Caribou, ME, United States Lat: 46.867
Local Time: 9:44 PM EST ( 2:44 GMT) Lon: -68.017
Time Zone: US/Eastern Elev: 626 ft

Show me the last for .
Show Decoded

2017-11-18 20:54 METAR KCAR 190154Z AUTO 10005KT 10SM OVC090 M02/M06 A2967 RMK AO2 SLP060
                 T10221061 =
2017-11-18 19:54 METAR KCAR 190054Z AUTO 11004KT 10SM OVC100 M02/M06 A2970 RMK AO2 SLP070
                 T10221061 =
2017-11-18 18:54 METAR KCAR 182354Z AUTO 18003KT 10SM OVC100 M02/M06 A2972 RMK AO2 SLP078
                 T10221061 11011 21022 55005 =
2017-11-18 17:54 METAR KCAR 182254Z AUTO 09004KT 10SM BKN090 OVC110 M02/M07 A2971 RMK AO2 SLP074
                 T10221067 =
2017-11-18 16:54 METAR KCAR 182154Z AUTO 09004KT 10SM BKN120 M02/M07 A2973 RMK AO2 SLP078
                 T10221067 =
2017-11-18 15:54 METAR KCAR 182054Z AUTO 12004KT 10SM CLR M02/M07 A2974 RMK AO2 SLP083 T10171067
                 58007 =
2017-11-18 14:54 METAR KCAR 181954Z AUTO 00000KT 10SM CLR M01/M07 A2975 RMK AO2 SLP087 T10111067
                 =
2017-11-18 13:54 METAR KCAR 181854Z AUTO 00000KT 10SM CLR M02/M07 A2976 RMK AO2 SLP091 T10171067
                 =
2017-11-18 12:54 METAR KCAR 181754Z AUTO 00000KT 10SM FEW110 M02/M07 A2976 RMK AO2 SLP090
                 T10221072 11017 21072 55032 =
2017-11-18 11:54 METAR KCAR 181654Z AUTO 01003KT 10SM OVC110 M02/M08 A2976 RMK AO2 SLP089
                 T10221078 =
2017-11-18 10:54 METAR KCAR 181554Z AUTO 32007KT 10SM CLR M02/M08 A2981 RMK AO2 SLP106 T10221078
                 =
2017-11-18 10:07 METAR KCAR 181507Z AUTO 31005KT 10SM SCT018 M03/M08 A2985 =
2017-11-18 09:54 METAR KCAR 181454Z AUTO 33005KT 10SM BKN018 M03/M08 A2986 RMK AO2 SLP123
                 T10331083 50005 =
2017-11-18 09:07 METAR KCAR 181407Z AUTO 25004KT 10SM BKN018 M05/M09 A2986 RMK AO2 T10501094 =
2017-11-18 08:54 METAR KCAR 181354Z AUTO VRB04KT 10SM FEW020 M04/M09 A2986 RMK AO2 SLP124
                 T10441094 =
2017-11-18 07:54 METAR KCAR 181254Z AUTO 23004KT 10SM CLR M07/M09 A2985 RMK AO2 SLP121 T10671094
                 =
2017-11-18 06:54 METAR KCAR 181154Z AUTO 29007KT 10SM CLR M07/M11 A2984 RMK AO2 SLP118 70010
                 T10721106 11044 21072 53023 =
2017-11-18 05:54 METAR KCAR 181054Z AUTO 32005KT 10SM CLR M07/M11 A2981 RMK AO2 SLP106 T10671106
                 =
2017-11-18 04:54 METAR KCAR 180954Z AUTO 32009KT 10SM CLR M07/M10 A2979 RMK AO2 SLP101 T10671100
                 =
2017-11-18 03:54 METAR KCAR 180854Z AUTO 33011KT 10SM CLR M06/M10 A2977 RMK AO2 SLP093 T10611100
                 51004 =
2017-11-18 03:35 METAR KCAR 180835Z AUTO 33014G19KT 10SM SCT022 M06/M10 A2977 RMK AO2 T10611100 =
2017-11-18 02:54 METAR KCAR 180754Z AUTO 31013G20KT 10SM OVC019 M06/M09 A2977 RMK AO2 SLP093
                 T10561094 =
2017-11-18 01:54 METAR KCAR 180654Z AUTO 31011G20KT 10SM OVC018 M05/M09 A2976 RMK AO2 SLP090
                 T10501089 =
2017-11-18 00:54 METAR KCAR 180554Z AUTO 30007KT 10SM OVC017 M05/M09 A2976 RMK AO2 SLP088
                 T10501089 11033 21050 50008 =
2017-11-17 23:54 METAR KCAR 180454Z AUTO 30011KT 10SM OVC019 M04/M09 A2977 RMK AO2 SLP092
                 T10441089 400221044 =
2017-11-17 22:54 METAR KCAR 180354Z AUTO 29009G18KT 250V310 10SM OVC020 M04/M08 A2976 RMK AO2
                 SLP088 T10441083 =
2017-11-17 21:54 METAR KCAR 180254Z AUTO 31008G23KT 10SM OVC020 M04/M08 A2973 RMK AO2 SLP079
                 T10391083 51013 =

Support USWX by starting your Amazon purchase here.